Time;durP1;ratioP1;P1;durP2;ratioP2;P2;SDS_P1;SDS_P2;PMS_P1;PMS_P2;Temp;Humidity;BMP_temperature;BMP_pressure;BME280_temperature;BME280_humidity;BME280_pressure;Samples;Min_cycle;Max_cycle;Signal;HPM_P1;HPM_P2
2024/03/31 00:00:26;;;;;;;7.97;4.10;;;22.40;54.10;;;;;;4976777;28;20899;-67
2024/03/31 00:02:52;;;;;;;4.70;3.10;;;22.40;54.00;;;;;;4994276;28;20243;-67
2024/03/31 00:05:18;;;;;;;6.43;3.60;;;22.40;54.00;;;;;;4994020;28;20412;-67
2024/03/31 00:07:43;;;;;;;5.73;3.00;;;22.40;54.00;;;;;;4994055;28;20690;-66
2024/03/31 00:10:09;;;;;;;9.27;3.90;;;22.50;54.10;;;;;;4994258;28;20755;-67
2024/03/31 00:12:35;;;;;;;7.87;4.40;;;22.40;54.00;;;;;;4994156;28;20191;-67
2024/03/31 00:15:01;;;;;;;6.30;3.77;;;22.40;54.00;;;;;;4994150;28;20427;-66
2024/03/31 00:17:26;;;;;;;9.93;4.37;;;22.40;54.00;;;;;;4993877;28;20235;-67
2024/03/31 00:19:52;;;;;;;4.00;3.43;;;22.40;54.00;;;;;;4994067;28;20212;-67
2024/03/31 00:22:18;;;;;;;6.83;3.00;;;22.50;54.10;;;;;;4993829;28;20255;-66
2024/03/31 00:24:43;;;;;;;4.00;3.07;;;22.50;54.10;;;;;;4993875;28;20427;-66
2024/03/31 00:27:10;;;;;;;4.77;2.97;;;22.40;54.00;;;;;;4993653;28;20183;-67
2024/03/31 00:29:36;;;;;;;8.00;3.40;;;22.40;54.00;;;;;;4993951;28;20176;-65
2024/03/31 00:32:02;;;;;;;5.00;3.17;;;22.40;54.00;;;;;;4993719;28;20431;-67
2024/03/31 00:34:27;;;;;;;5.07;3.80;;;22.50;54.10;;;;;;4993594;28;20404;-67
2024/03/31 00:36:53;;;;;;;5.90;3.20;;;22.50;54.10;;;;;;4975739;28;20200;-67
2024/03/31 00:39:18;;;;;;;5.20;3.00;;;22.50;54.10;;;;;;4993180;28;20184;-67
2024/03/31 00:41:44;;;;;;;5.33;3.20;;;22.50;54.10;;;;;;4993190;28;20231;-67
2024/03/31 00:44:10;;;;;;;4.90;3.07;;;22.50;54.00;;;;;;4993079;28;20184;-67
2024/03/31 00:46:35;;;;;;;8.27;3.67;;;22.50;54.60;;;;;;4993221;28;20239;-66
2024/03/31 00:49:01;;;;;;;9.30;3.80;;;22.50;54.00;;;;;;4993518;28;20189;-66
2024/03/31 00:51:26;;;;;;;4.00;3.23;;;22.50;54.00;;;;;;4993072;28;20684;-67
2024/03/31 00:53:52;;;;;;;3.97;2.60;;;22.40;53.90;;;;;;4993075;28;20556;-67
2024/03/31 00:56:18;;;;;;;4.03;2.73;;;22.50;54.00;;;;;;4993358;28;20212;-66
2024/03/31 00:58:44;;;;;;;7.97;4.13;;;22.40;53.90;;;;;;4993199;28;20265;-67
2024/03/31 01:01:11;;;;;;;5.77;3.53;;;22.40;54.00;;;;;;4975448;28;20551;-65
2024/03/31 01:03:37;;;;;;;5.67;3.37;;;22.40;54.00;;;;;;4993352;28;20165;-67
2024/03/31 01:06:16;;;;;;;7.90;3.30;;;22.40;54.00;;;;;;4993490;28;20443;-67
2024/03/31 01:08:42;;;;;;;6.43;4.00;;;22.40;54.00;;;;;;4992993;28;20408;-65
2024/03/31 01:11:08;;;;;;;6.20;2.70;;;22.40;54.00;;;;;;4992813;28;20487;-67
2024/03/31 01:13:34;;;;;;;5.70;3.13;;;22.40;54.00;;;;;;4993260;28;20922;-66
2024/03/31 01:16:00;;;;;;;6.13;3.53;;;22.40;54.00;;;;;;4992678;28;20412;-67
2024/03/31 01:18:26;;;;;;;4.47;3.33;;;22.40;54.20;;;;;;4992631;28;20191;-67
2024/03/31 01:20:51;;;;;;;5.90;3.20;;;22.40;54.00;;;;;;4975257;28;20468;-67
2024/03/31 01:23:19;;;;;;;6.87;4.07;;;22.40;54.00;;;;;;4992817;28;20516;-67
2024/03/31 01:25:45;;;;;;;6.40;3.67;;;22.40;54.00;;;;;;4975388;28;20180;-66
2024/03/31 01:28:10;;;;;;;5.70;3.60;;;22.40;54.00;;;;;;4992465;28;20408;-67
2024/03/31 01:30:36;;;;;;;5.00;2.83;;;22.40;54.00;;;;;;4992731;28;20275;-67
2024/03/31 01:33:02;;;;;;;6.13;3.17;;;22.40;54.00;;;;;;4992355;28;20254;-67
2024/03/31 01:35:28;;;;;;;5.03;3.63;;;22.40;54.00;;;;;;4992556;28;20243;-67
2024/03/31 01:37:53;;;;;;;6.10;3.40;;;22.40;54.10;;;;;;4992714;28;20415;-67
2024/03/31 01:40:19;;;;;;;5.50;3.07;;;22.40;54.10;;;;;;4992459;28;20193;-66
2024/03/31 01:42:47;;;;;;;3.40;2.53;;;22.40;54.10;;;;;;4992442;28;20168;-67
2024/03/31 01:45:13;;;;;;;5.77;3.00;;;22.40;54.60;;;;;;4992447;28;20435;-66
2024/03/31 01:47:39;;;;;;;4.90;2.90;;;22.40;54.10;;;;;;4992452;28;20408;-67
2024/03/31 01:50:05;;;;;;;5.80;3.53;;;22.40;54.10;;;;;;4991425;28;20900;-66
2024/03/31 01:52:30;;;;;;;4.40;3.27;;;22.40;54.10;;;;;;4992397;28;20172;-67
2024/03/31 01:54:56;;;;;;;6.93;2.50;;;22.40;54.10;;;;;;4992174;28;20412;-66
2024/03/31 01:57:22;;;;;;;5.03;2.97;;;22.40;54.10;;;;;;4992469;28;20648;-66
2024/03/31 01:59:47;;;;;;;4.13;2.37;;;22.40;54.10;;;;;;4992318;28;20673;-67
2024/03/31 02:02:13;;;;;;;4.80;3.33;;;22.40;54.10;;;;;;4991898;28;20200;-67
2024/03/31 02:04:38;;;;;;;3.33;2.60;;;22.40;54.10;;;;;;4992091;28;20541;-66
2024/03/31 02:07:04;;;;;;;4.73;3.00;;;22.40;54.10;;;;;;4992140;28;20177;-67
2024/03/31 02:09:29;;;;;;;3.87;3.23;;;22.40;54.10;;;;;;4992074;28;20172;-67
2024/03/31 02:11:56;;;;;;;4.70;2.90;;;22.40;54.10;;;;;;4991972;28;20173;-67
2024/03/31 02:14:21;;;;;;;3.80;2.53;;;22.40;54.10;;;;;;4992301;28;20305;-67
2024/03/31 02:16:47;;;;;;;4.53;2.80;;;22.40;54.10;;;;;;4991748;28;20509;-66
2024/03/31 02:19:12;;;;;;;4.37;3.20;;;22.40;54.10;;;;;;4991713;28;20679;-66
2024/03/31 02:21:38;;;;;;;4.67;3.10;;;22.40;54.10;;;;;;4991706;28;20201;-67
2024/03/31 02:24:04;;;;;;;4.27;2.70;;;22.40;54.10;;;;;;4991660;28;20264;-67
2024/03/31 02:26:30;;;;;;;5.77;2.60;;;22.40;54.70;;;;;;4992230;28;20276;-67
2024/03/31 02:28:55;;;;;;;6.80;4.00;;;22.40;54.10;;;;;;4991815;28;20519;-66
2024/03/31 02:31:21;;;;;;;4.67;3.63;;;22.40;54.10;;;;;;4991627;28;20622;-67
2024/03/31 02:33:47;;;;;;;6.50;3.17;;;22.40;54.10;;;;;;4991691;28;20648;-67
2024/03/31 02:36:12;;;;;;;3.37;2.23;;;22.40;54.10;;;;;;4991522;28;20267;-67
2024/03/31 02:38:38;;;;;;;4.53;2.53;;;22.40;54.10;;;;;;4973855;28;20189;-68
2024/03/31 02:41:04;;;;;;;3.67;2.87;;;22.40;54.10;;;;;;4991552;28;20212;-66
2024/03/31 02:43:29;;;;;;;4.97;3.23;;;22.40;54.10;;;;;;4991493;28;20184;-67
2024/03/31 02:45:55;;;;;;;3.50;2.70;;;22.40;54.10;;;;;;4991521;28;20184;-67
2024/03/31 02:48:20;;;;;;;5.70;2.30;;;22.40;54.10;;;;;;4992124;28;20173;-67
2024/03/31 02:50:49;;;;;;;3.83;2.67;;;22.40;54.10;;;;;;4991645;28;20322;-67
2024/03/31 02:53:15;;;;;;;3.70;2.47;;;22.40;54.00;;;;;;4991452;28;20181;-68
2024/03/31 02:55:40;;;;;;;8.33;3.63;;;22.40;54.10;;;;;;4991416;28;20431;-67
2024/03/31 02:58:06;;;;;;;4.43;2.60;;;22.40;54.00;;;;;;4991370;28;20185;-68
2024/03/31 03:00:31;;;;;;;4.43;2.70;;;22.40;54.00;;;;;;4991798;28;20502;-66
2024/03/31 03:02:57;;;;;;;4.30;3.37;;;22.40;54.00;;;;;;4995590;28;20663;-67
2024/03/31 03:05:23;;;;;;;4.53;2.50;;;22.40;54.00;;;;;;4995247;28;20668;-67
2024/03/31 03:07:48;;;;;;;3.43;2.57;;;22.40;54.00;;;;;;4995442;28;20958;-67
2024/03/31 03:10:14;;;;;;;5.50;2.67;;;22.40;54.00;;;;;;4995157;28;20220;-66
2024/03/31 03:12:39;;;;;;;3.10;2.53;;;22.40;54.00;;;;;;4995061;28;20185;-67
2024/03/31 03:15:05;;;;;;;5.63;2.20;;;22.40;54.10;;;;;;4977669;28;20207;-66
2024/03/31 03:17:30;;;;;;;4.73;2.57;;;22.40;54.00;;;;;;4995337;28;20663;-68
2024/03/31 03:19:56;;;;;;;5.20;2.77;;;22.40;54.00;;;;;;4994834;28;20259;-69
2024/03/31 03:22:22;;;;;;;3.70;3.03;;;22.40;54.00;;;;;;4995026;28;20211;-68
2024/03/31 03:24:55;;;;;;;3.83;2.50;;;22.40;54.00;;;;;;4994772;28;20173;-67
2024/03/31 03:27:21;;;;;;;3.50;2.20;;;22.40;54.00;;;;;;4994711;28;20431;-67
2024/03/31 03:29:46;;;;;;;3.20;2.30;;;22.50;54.10;;;;;;4995268;28;20412;-67
2024/03/31 03:32:12;;;;;;;4.03;2.37;;;22.50;54.10;;;;;;4994584;28;20208;-67
2024/03/31 03:34:37;;;;;;;3.03;2.30;;;22.40;54.00;;;;;;4994663;28;20208;-67
2024/03/31 03:37:03;;;;;;;3.47;2.60;;;22.40;54.00;;;;;;4994642;28;20173;-68
2024/03/31 03:39:29;;;;;;;4.13;2.50;;;22.40;54.00;;;;;;4994547;28;20702;-66
2024/03/31 03:41:55;;;;;;;5.70;2.90;;;22.40;54.00;;;;;;4994654;28;20389;-68
2024/03/31 03:44:20;;;;;;;2.83;1.97;;;22.40;54.00;;;;;;4994477;28;20183;-67
2024/03/31 03:46:46;;;;;;;3.20;2.20;;;22.40;54.00;;;;;;4994721;28;20177;-67
2024/03/31 03:49:12;;;;;;;2.70;2.03;;;22.40;54.00;;;;;;4994525;28;20272;-67
2024/03/31 03:51:38;;;;;;;4.23;2.60;;;22.40;54.00;;;;;;4994309;28;20288;-67
2024/03/31 03:54:05;;;;;;;4.07;2.47;;;22.40;54.00;;;;;;4994488;28;20217;-67
2024/03/31 03:56:30;;;;;;;3.30;2.43;;;22.40;54.00;;;;;;4994419;28;20420;-67
2024/03/31 03:58:57;;;;;;;5.00;3.00;;;22.40;54.10;;;;;;4994331;28;20490;-67
2024/03/31 04:01:23;;;;;;;2.90;2.33;;;22.40;54.10;;;;;;4994009;28;20205;-67
2024/03/31 04:03:48;;;;;;;3.87;2.50;;;22.40;54.10;;;;;;4994393;28;20899;-67
2024/03/31 04:06:14;;;;;;;3.30;2.37;;;22.40;54.10;;;;;;4994161;28;20216;-66
2024/03/31 04:08:40;;;;;;;3.00;2.40;;;22.40;54.10;;;;;;4994014;28;20169;-67
2024/03/31 04:11:05;;;;;;;4.97;2.50;;;22.40;54.10;;;;;;4976764;28;20284;-68
2024/03/31 04:13:31;;;;;;;3.53;2.10;;;22.40;54.10;;;;;;4993490;28;20562;-67
2024/03/31 04:16:00;;;;;;;3.40;2.20;;;22.40;54.10;;;;;;4993958;28;20242;-68
2024/03/31 04:18:26;;;;;;;4.17;2.30;;;22.30;54.00;;;;;;4976385;28;20967;-67
2024/03/31 04:20:52;;;;;;;2.67;2.10;;;22.30;54.10;;;;;;4994026;28;20473;-67
2024/03/31 04:23:17;;;;;;;3.33;2.37;;;22.40;54.10;;;;;;4993792;28;20443;-67
2024/03/31 04:25:43;;;;;;;3.90;2.47;;;22.40;54.10;;;;;;4976415;28;20181;-66
2024/03/31 04:28:09;;;;;;;4.63;2.30;;;22.30;54.10;;;;;;4993974;28;20177;-67
2024/03/31 04:30:42;;;;;;;4.03;2.73;;;22.30;54.10;;;;;;4993800;28;20212;-67
2024/03/31 04:33:08;;;;;;;2.37;1.77;;;22.30;54.10;;;;;;4994109;28;20211;-68
2024/03/31 04:35:35;;;;;;;3.47;2.60;;;22.30;54.10;;;;;;4993456;28;20449;-66
2024/03/31 04:38:02;;;;;;;4.63;2.43;;;22.30;54.10;;;;;;4993504;28;20456;-67
2024/03/31 04:40:27;;;;;;;3.53;2.23;;;22.30;54.10;;;;;;4993409;28;20527;-66
2024/03/31 04:42:53;;;;;;;3.87;3.20;;;22.30;54.10;;;;;;4993295;28;20864;-67
2024/03/31 04:45:18;;;;;;;4.87;2.50;;;22.30;54.10;;;;;;4993603;28;20185;-67
2024/03/31 04:47:44;;;;;;;3.60;2.40;;;22.30;54.10;;;;;;4993457;28;20185;-67
2024/03/31 04:50:10;;;;;;;4.43;2.73;;;22.30;54.10;;;;;;4993369;28;20263;-67
2024/03/31 04:52:36;;;;;;;5.93;2.90;;;22.30;54.10;;;;;;4993389;28;20173;-67
2024/03/31 04:55:02;;;;;;;3.63;2.50;;;22.30;54.00;;;;;;4993583;28;20411;-67
2024/03/31 04:57:27;;;;;;;4.90;2.47;;;22.30;53.90;;;;;;4975544;28;20187;-67
2024/03/31 04:59:53;;;;;;;6.00;3.83;;;22.30;53.80;;;;;;4992971;28;20193;-67
2024/03/31 05:02:18;;;;;;;5.13;2.90;;;22.30;53.90;;;;;;4992872;28;20224;-67
2024/03/31 05:04:44;;;;;;;3.67;2.57;;;22.30;53.90;;;;;;4993033;28;20269;-67
2024/03/31 05:07:10;;;;;;;5.43;2.90;;;22.30;53.90;;;;;;4975658;28;20173;-67
2024/03/31 05:09:36;;;;;;;4.53;2.67;;;22.30;53.90;;;;;;4992895;28;20165;-67
2024/03/31 05:12:02;;;;;;;3.40;2.53;;;22.30;54.00;;;;;;4992945;28;20469;-67
2024/03/31 05:14:27;;;;;;;3.80;2.50;;;22.30;54.00;;;;;;4993128;28;20177;-67
2024/03/31 05:16:53;;;;;;;7.00;2.97;;;22.30;54.00;;;;;;4992864;28;20232;-67
2024/03/31 05:19:18;;;;;;;5.13;3.30;;;22.30;54.00;;;;;;4992876;28;20188;-67
2024/03/31 05:21:44;;;;;;;4.17;1.93;;;22.30;54.00;;;;;;4992758;28;20290;-67
2024/03/31 05:24:09;;;;;;;5.63;2.50;;;22.30;54.00;;;;;;4992038;28;20170;-67
2024/03/31 05:26:35;;;;;;;3.90;2.23;;;22.30;54.10;;;;;;4992502;28;20187;-67
2024/03/31 05:29:00;;;;;;;5.23;2.37;;;22.30;54.10;;;;;;4993004;28;20191;-67
2024/03/31 05:31:26;;;;;;;7.30;3.10;;;22.30;54.10;;;;;;4992531;28;20572;-67
2024/03/31 05:33:51;;;;;;;3.30;2.40;;;22.30;54.10;;;;;;4992590;28;20196;-68
2024/03/31 05:36:17;;;;;;;4.13;2.70;;;22.30;54.10;;;;;;4992467;28;20189;-67
2024/03/31 05:38:43;;;;;;;3.97;2.70;;;22.30;54.10;;;;;;4993161;28;20177;-65
2024/03/31 05:41:08;;;;;;;4.83;2.50;;;22.30;54.10;;;;;;4992239;28;20236;-67
2024/03/31 05:43:34;;;;;;;5.63;2.60;;;22.30;54.10;;;;;;4992747;28;20852;-68
2024/03/31 05:45:59;;;;;;;3.87;2.50;;;22.30;54.10;;;;;;4992607;28;20177;-67
2024/03/31 05:48:25;;;;;;;5.40;2.90;;;22.30;54.10;;;;;;4992359;28;20177;-68
2024/03/31 05:50:52;;;;;;;2.70;1.90;;;22.30;54.10;;;;;;4992268;28;20220;-68
2024/03/31 05:53:18;;;;;;;5.00;2.63;;;22.30;54.10;;;;;;4992143;28;20539;-67
2024/03/31 05:55:43;;;;;;;5.50;3.10;;;22.40;54.70;;;;;;4992350;28;20412;-67
2024/03/31 05:58:09;;;;;;;4.23;2.40;;;22.30;54.10;;;;;;4992332;28;20183;-67
2024/03/31 06:00:34;;;;;;;4.37;2.60;;;22.40;54.20;;;;;;4974638;28;20217;-65
2024/03/31 06:03:00;;;;;;;3.10;2.30;;;22.40;54.20;;;;;;4991899;28;20177;-68
2024/03/31 06:05:25;;;;;;;4.53;2.23;;;22.40;54.20;;;;;;4992301;28;20619;-67
2024/03/31 06:07:51;;;;;;;6.23;2.47;;;22.40;54.10;;;;;;4992393;28;20288;-68
2024/03/31 06:10:17;;;;;;;4.10;2.53;;;22.40;54.10;;;;;;4991904;28;20683;-66
2024/03/31 06:12:43;;;;;;;4.00;2.50;;;22.40;54.10;;;;;;4992175;28;20409;-66
2024/03/31 06:15:09;;;;;;;3.43;2.13;;;22.40;54.10;;;;;;4991955;28;20494;-66
2024/03/31 06:17:36;;;;;;;4.40;2.20;;;22.40;54.10;;;;;;4992033;28;20478;-68
2024/03/31 06:20:03;;;;;;;4.17;2.90;;;22.40;54.10;;;;;;4992216;28;20918;-67
2024/03/31 06:22:29;;;;;;;5.30;2.87;;;22.40;54.10;;;;;;4991935;28;20463;-67
2024/03/31 06:24:54;;;;;;;3.20;2.27;;;22.40;54.10;;;;;;4991883;28;20438;-67
2024/03/31 06:27:20;;;;;;;3.40;2.37;;;22.40;54.10;;;;;;4992205;28;20181;-66
2024/03/31 06:29:49;;;;;;;4.30;2.57;;;22.40;54.10;;;;;;4991841;28;20707;-67
2024/03/31 06:32:15;;;;;;;4.67;2.47;;;22.40;54.10;;;;;;4992080;28;20231;-68
2024/03/31 06:34:41;;;;;;;4.00;2.27;;;22.40;54.10;;;;;;4991880;28;20416;-67
2024/03/31 06:37:07;;;;;;;3.80;2.30;;;22.40;54.10;;;;;;4995106;28;20447;-68
2024/03/31 06:39:33;;;;;;;3.33;2.00;;;22.40;54.10;;;;;;4996138;28;20490;-67
2024/03/31 06:41:58;;;;;;;3.87;2.30;;;22.50;54.20;;;;;;4995843;28;20200;-67
2024/03/31 06:44:24;;;;;;;3.57;2.90;;;22.40;54.10;;;;;;4995754;28;20963;-68
2024/03/31 06:46:49;;;;;;;4.60;2.87;;;22.40;54.10;;;;;;4995977;28;20183;-68
2024/03/31 06:49:15;;;;;;;3.10;2.40;;;22.40;54.10;;;;;;4995580;28;20240;-67
2024/03/31 06:51:40;;;;;;;5.00;2.30;;;22.50;54.20;;;;;;4995496;28;20430;-67
2024/03/31 06:54:06;;;;;;;2.90;1.90;;;22.50;54.20;;;;;;4995799;28;20544;-68
2024/03/31 06:56:32;;;;;;;4.87;2.80;;;22.50;54.20;;;;;;4995338;28;20203;-67
2024/03/31 06:58:57;;;;;;;6.63;2.47;;;22.50;54.20;;;;;;4995682;28;20181;-68
2024/03/31 07:01:23;;;;;;;6.37;2.73;;;22.50;54.20;;;;;;4995274;28;20215;-68
2024/03/31 07:03:48;;;;;;;3.70;2.60;;;22.50;54.20;;;;;;4995717;28;20197;-68
2024/03/31 07:06:14;;;;;;;3.17;2.27;;;22.50;54.20;;;;;;4995716;28;20668;-66
2024/03/31 07:08:39;;;;;;;4.80;2.70;;;22.50;54.80;;;;;;4995941;28;20207;-67
2024/03/31 07:11:05;;;;;;;3.00;2.47;;;22.50;54.20;;;;;;4995581;28;20197;-68
2024/03/31 07:13:30;;;;;;;3.83;2.13;;;22.50;54.20;;;;;;4995349;28;20943;-68
2024/03/31 07:15:56;;;;;;;3.63;2.23;;;22.50;54.20;;;;;;4995783;28;20556;-68
2024/03/31 07:18:21;;;;;;;5.20;2.40;;;22.50;54.20;;;;;;4995497;28;20600;-68
2024/03/31 07:20:48;;;;;;;2.73;1.90;;;22.50;54.30;;;;;;4995002;28;20208;-67
2024/03/31 07:23:13;;;;;;;3.77;2.33;;;22.50;54.20;;;;;;4995164;28;20200;-67
2024/03/31 07:25:39;;;;;;;3.80;2.00;;;22.50;54.20;;;;;;4995294;28;20408;-68
2024/03/31 07:28:05;;;;;;;5.83;2.80;;;22.50;54.20;;;;;;4995240;28;20660;-68
2024/03/31 07:30:32;;;;;;;2.70;1.70;;;22.50;54.20;;;;;;4994993;28;20490;-68
2024/03/31 07:32:57;;;;;;;5.20;2.43;;;22.50;54.20;;;;;;4995058;28;20205;-68
2024/03/31 07:35:23;;;;;;;3.10;1.90;;;22.50;54.20;;;;;;4994909;28;20451;-67
2024/03/31 07:37:48;;;;;;;4.43;2.63;;;22.50;54.20;;;;;;4995015;28;20161;-68
2024/03/31 07:40:15;;;;;;;4.10;2.07;;;22.60;54.30;;;;;;4995096;28;20193;-67
2024/03/31 07:42:40;;;;;;;2.70;2.30;;;22.50;54.20;;;;;;4994850;28;20664;-67
2024/03/31 07:45:06;;;;;;;3.70;2.67;;;22.50;54.20;;;;;;4995148;28;20404;-68
2024/03/31 07:47:32;;;;;;;3.70;2.03;;;22.60;54.30;;;;;;4993894;28;20209;-67
2024/03/31 07:49:58;;;;;;;2.80;2.20;;;22.50;54.20;;;;;;4994672;28;20639;-67
2024/03/31 07:52:24;;;;;;;3.30;2.37;;;22.60;54.30;;;;;;4994437;28;20412;-68
2024/03/31 07:54:49;;;;;;;2.77;2.00;;;22.60;54.30;;;;;;4976951;28;20588;-68
2024/03/31 07:57:15;;;;;;;2.77;2.00;;;22.60;54.30;;;;;;4994604;28;20185;-68
2024/03/31 07:59:41;;;;;;;3.00;2.37;;;22.60;54.30;;;;;;4994701;28;20180;-66
2024/03/31 08:02:06;;;;;;;2.93;2.43;;;22.60;54.30;;;;;;4994550;28;20211;-68
2024/03/31 08:04:32;;;;;;;5.27;2.47;;;22.60;54.30;;;;;;4994450;28;20675;-68
2024/03/31 08:06:58;;;;;;;2.73;1.90;;;22.60;54.30;;;;;;4994748;28;20165;-68
2024/03/31 08:09:23;;;;;;;2.20;2.00;;;22.60;54.30;;;;;;4994809;28;20235;-68
2024/03/31 08:11:49;;;;;;;2.70;1.97;;;22.60;54.30;;;;;;4994112;28;20550;-67
2024/03/31 08:14:14;;;;;;;3.63;2.33;;;22.60;54.30;;;;;;4994432;28;20180;-67
2024/03/31 08:16:40;;;;;;;3.30;2.17;;;22.60;54.30;;;;;;4994227;28;20185;-67
2024/03/31 08:19:06;;;;;;;3.80;2.07;;;22.60;54.30;;;;;;4994108;28;20173;-68
2024/03/31 08:21:31;;;;;;;3.10;2.53;;;22.60;54.30;;;;;;4994171;28;20209;-67
2024/03/31 08:23:57;;;;;;;3.03;1.63;;;22.60;54.30;;;;;;4994267;28;20170;-68
2024/03/31 08:26:22;;;;;;;3.30;2.80;;;22.60;54.30;;;;;;4994017;28;20672;-68
2024/03/31 08:28:48;;;;;;;2.87;2.00;;;22.60;54.30;;;;;;4994354;28;20291;-69
2024/03/31 08:31:13;;;;;;;3.40;2.20;;;22.60;54.30;;;;;;4993717;28;20576;-67
2024/03/31 08:33:39;;;;;;;2.50;1.80;;;22.60;54.30;;;;;;4993655;28;20296;-67
2024/03/31 08:36:05;;;;;;;2.40;1.90;;;22.60;54.30;;;;;;4993908;28;20587;-67
2024/03/31 08:38:31;;;;;;;3.17;2.67;;;22.60;54.30;;;;;;4994086;28;20173;-68
2024/03/31 08:41:04;;;;;;;2.23;1.70;;;22.60;54.30;;;;;;4993788;28;20281;-67
2024/03/31 08:43:35;;;;;;;2.90;2.07;;;22.60;54.30;;;;;;4993594;28;20643;-68
2024/03/31 08:46:01;;;;;;;2.90;1.90;;;22.60;54.30;;;;;;4994078;28;20401;-68
2024/03/31 08:48:31;;;;;;;4.37;1.93;;;22.60;54.30;;;;;;4993808;28;20495;-67
2024/03/31 08:50:57;;;;;;;2.90;2.20;;;22.60;54.30;;;;;;4993538;28;20443;-68
2024/03/31 08:53:25;;;;;;;2.80;2.13;;;22.70;54.40;;;;;;4993868;28;20807;-67
2024/03/31 08:55:50;;;;;;;3.80;2.40;;;22.60;54.30;;;;;;4993628;28;20409;-67
2024/03/31 08:58:16;;;;;;;3.10;2.10;;;22.60;54.30;;;;;;4993240;28;20455;-68
2024/03/31 09:00:43;;;;;;;3.40;2.20;;;22.60;54.30;;;;;;4993410;28;20291;-68
2024/03/31 09:03:10;;;;;;;4.47;2.07;;;22.60;54.30;;;;;;4993691;28;20559;-68
2024/03/31 09:05:36;;;;;;;2.30;1.53;;;22.60;54.30;;;;;;4993381;28;20503;-68
2024/03/31 09:08:06;;;;;;;4.03;2.10;;;22.60;54.30;;;;;;4975577;28;20428;-67
2024/03/31 09:10:32;;;;;;;3.50;1.80;;;22.70;54.40;;;;;;4993462;28;20433;-67
2024/03/31 09:12:57;;;;;;;4.23;1.57;;;22.60;54.30;;;;;;4993157;28;20471;-68
2024/03/31 09:15:23;;;;;;;2.50;1.70;;;22.60;54.30;;;;;;4993030;28;20181;-68
2024/03/31 09:17:49;;;;;;;2.60;2.30;;;22.60;54.30;;;;;;4974935;28;20191;-68
2024/03/31 09:20:14;;;;;;;2.70;1.87;;;22.70;54.40;;;;;;4993026;28;20207;-67
2024/03/31 09:22:40;;;;;;;2.30;1.53;;;22.60;54.30;;;;;;4992852;28;20254;-68
2024/03/31 09:25:09;;;;;;;2.47;2.10;;;22.60;54.30;;;;;;4992847;28;20188;-68
2024/03/31 09:27:36;;;;;;;4.60;2.83;;;22.60;54.30;;;;;;4993274;28;20412;-67
2024/03/31 09:30:04;;;;;;;5.70;1.97;;;22.60;54.30;;;;;;4993177;28;20877;-68
2024/03/31 09:32:30;;;;;;;3.87;1.90;;;22.60;54.30;;;;;;4992989;28;20450;-68
2024/03/31 09:34:56;;;;;;;2.20;1.47;;;22.70;54.40;;;;;;4992614;28;20420;-68
2024/03/31 09:37:22;;;;;;;4.30;2.70;;;22.70;54.40;;;;;;4992967;28;20192;-69
2024/03/31 09:39:47;;;;;;;2.13;1.60;;;22.60;54.30;;;;;;4992860;28;20221;-67
2024/03/31 09:42:13;;;;;;;3.40;2.03;;;22.60;54.30;;;;;;4992514;28;20207;-68
2024/03/31 09:44:45;;;;;;;2.43;1.97;;;22.70;54.40;;;;;;4992340;28;20177;-66
2024/03/31 09:47:34;;;;;;;1.90;1.60;;;22.70;54.40;;;;;;4993049;28;20423;-68
2024/03/31 09:50:18;;;;;;;4.10;2.10;;;22.70;54.40;;;;;;4992670;28;20452;-67
2024/03/31 09:52:46;;;;;;;2.37;1.40;;;22.70;54.40;;;;;;4992383;28;20404;-67
2024/03/31 09:55:13;;;;;;;4.13;2.13;;;22.60;54.40;;;;;;4992275;28;20563;-68
2024/03/31 09:57:44;;;;;;;2.63;1.80;;;22.60;54.40;;;;;;4992622;28;20415;-67
2024/03/31 10:00:13;;;;;;;5.27;2.10;;;22.60;54.40;;;;;;4992977;28;20424;-68
2024/03/31 10:02:51;;;;;;;3.03;1.90;;;22.60;54.30;;;;;;4992296;28;21038;-67
2024/03/31 10:05:40;;;;;;;2.90;2.00;;;22.60;54.40;;;;;;4992889;28;20487;-68
2024/03/31 10:08:08;;;;;;;3.37;2.20;;;22.70;54.40;;;;;;4991937;28;20440;-67
2024/03/31 10:10:35;;;;;;;2.73;1.90;;;22.60;54.40;;;;;;4991908;28;20432;-67
2024/03/31 10:13:03;;;;;;;3.20;1.97;;;22.60;54.40;;;;;;4992247;28;20404;-68
2024/03/31 10:15:31;;;;;;;2.63;2.00;;;22.70;54.40;;;;;;4992503;28;20820;-68
2024/03/31 10:17:59;;;;;;;2.07;1.70;;;22.60;54.40;;;;;;4992419;28;20423;-69
2024/03/31 10:20:26;;;;;;;2.30;1.60;;;22.70;54.50;;;;;;4992029;28;20566;-68
2024/03/31 10:22:53;;;;;;;4.00;1.73;;;22.70;54.50;;;;;;4992193;28;20412;-68
2024/03/31 10:25:20;;;;;;;2.80;1.77;;;22.70;54.40;;;;;;4992290;28;20414;-68
2024/03/31 10:27:50;;;;;;;2.93;1.90;;;22.70;54.50;;;;;;4992128;28;20401;-68
2024/03/31 10:30:16;;;;;;;3.57;2.10;;;22.70;54.40;;;;;;4992051;28;20522;-68
2024/03/31 10:32:41;;;;;;;2.30;1.83;;;22.70;54.50;;;;;;4992170;28;20999;-66
2024/03/31 10:35:07;;;;;;;1.97;1.60;;;22.70;54.40;;;;;;4992197;28;20416;-68
2024/03/31 10:37:34;;;;;;;2.10;1.77;;;22.70;54.40;;;;;;4992011;28;20177;-68
2024/03/31 10:40:02;;;;;;;2.93;2.23;;;22.70;54.50;;;;;;4992719;28;20199;-66
2024/03/31 10:42:28;;;;;;;2.40;1.57;;;22.70;54.40;;;;;;4974149;28;20483;-67
2024/03/31 10:44:54;;;;;;;3.07;1.63;;;22.70;54.40;;;;;;4991747;28;20431;-69
2024/03/31 10:47:21;;;;;;;2.43;1.93;;;22.70;54.50;;;;;;4992085;28;20957;-67
2024/03/31 10:49:55;;;;;;;2.30;1.60;;;22.70;54.40;;;;;;4991842;28;21262;-68
2024/03/31 10:52:24;;;;;;;2.10;1.53;;;22.70;54.50;;;;;;4992075;28;20468;-68
2024/03/31 10:54:51;;;;;;;2.13;1.93;;;22.70;54.50;;;;;;4991668;28;20408;-67
2024/03/31 10:57:17;;;;;;;2.33;1.60;;;22.70;54.50;;;;;;4992035;28;20499;-68
2024/03/31 10:59:43;;;;;;;3.03;2.00;;;22.70;54.50;;;;;;4991580;28;20511;-68
2024/03/31 11:02:21;;;;;;;2.33;1.80;;;22.70;54.50;;;;;;4991831;28;20211;-68
2024/03/31 11:05:04;;;;;;;2.50;1.70;;;22.70;54.40;;;;;;4991711;28;20419;-68
2024/03/31 11:07:51;;;;;;;2.87;1.87;;;22.70;54.40;;;;;;4991612;28;20410;-68
2024/03/31 11:10:19;;;;;;;3.30;1.70;;;22.70;54.50;;;;;;4991129;28;20462;-68
2024/03/31 11:12:46;;;;;;;3.67;2.10;;;22.70;54.50;;;;;;4991775;28;20905;-67
2024/03/31 11:15:13;;;;;;;1.40;1.23;;;22.70;54.50;;;;;;4991858;28;20429;-68
2024/03/31 11:17:40;;;;;;;1.77;1.37;;;22.70;54.50;;;;;;4991588;28;20495;-67
2024/03/31 11:20:07;;;;;;;1.50;1.23;;;22.70;54.50;;;;;;4992315;28;20471;-68
2024/03/31 11:22:34;;;;;;;2.40;1.67;;;22.70;54.50;;;;;;4993167;28;20878;-66
2024/03/31 11:25:00;;;;;;;4.23;1.70;;;22.70;54.50;;;;;;4995146;28;20416;-67
2024/03/31 11:27:27;;;;;;;2.60;1.77;;;22.70;54.50;;;;;;4995008;28;20444;-68
2024/03/31 11:29:54;;;;;;;2.47;1.47;;;22.70;54.50;;;;;;4995261;28;20432;-67
2024/03/31 11:32:19;;;;;;;1.93;1.53;;;22.70;54.50;;;;;;4995228;28;20462;-67
2024/03/31 11:34:46;;;;;;;1.90;1.50;;;22.70;54.50;;;;;;4994896;28;20834;-69
2024/03/31 11:37:12;;;;;;;2.80;1.70;;;22.70;54.50;;;;;;4995150;28;20620;-68
2024/03/31 11:39:37;;;;;;;1.90;1.37;;;22.70;54.50;;;;;;4995437;28;20443;-67
2024/03/31 11:42:03;;;;;;;2.77;1.77;;;22.70;54.50;;;;;;4995247;28;20920;-68
2024/03/31 11:44:32;;;;;;;2.20;1.57;;;22.70;54.50;;;;;;4994973;28;20177;-67
2024/03/31 11:47:04;;;;;;;2.93;2.00;;;22.70;54.50;;;;;;4994855;28;20404;-68
2024/03/31 11:49:32;;;;;;;4.40;1.50;;;22.70;54.50;;;;;;4995157;28;20858;-68
2024/03/31 11:51:58;;;;;;;2.80;1.50;;;22.70;54.50;;;;;;4995499;28;20419;-67
2024/03/31 11:54:27;;;;;;;2.97;2.77;;;22.70;54.50;;;;;;4995565;28;20412;-67
2024/03/31 11:56:53;;;;;;;3.60;1.97;;;22.70;54.50;;;;;;4994703;28;20231;-68
2024/03/31 11:59:20;;;;;;;2.90;1.63;;;22.70;54.50;;;;;;4994498;28;20547;-68
2024/03/31 12:01:54;;;;;;;2.30;1.43;;;22.70;54.50;;;;;;4993924;28;20460;-67
2024/03/31 12:04:20;;;;;;;2.90;1.90;;;22.70;55.10;;;;;;4993649;28;20392;-66
2024/03/31 12:06:45;;;;;;;1.60;1.33;;;22.70;54.50;;;;;;4993820;28;20439;-68
2024/03/31 12:09:12;;;;;;;2.77;2.07;;;22.70;54.50;;;;;;4993603;28;20316;-66
2024/03/31 12:11:38;;;;;;;2.50;1.60;;;22.70;54.50;;;;;;4993548;28;20197;-66
2024/03/31 12:14:05;;;;;;;2.83;1.83;;;22.70;54.50;;;;;;4993512;28;20945;-67
2024/03/31 12:16:31;;;;;;;2.63;2.00;;;22.70;54.80;;;;;;4993157;28;20417;-67
2024/03/31 12:18:58;;;;;;;2.60;1.50;;;22.70;54.50;;;;;;4993513;28;20420;-67
2024/03/31 12:21:24;;;;;;;2.13;1.60;;;22.70;54.50;;;;;;4993839;28;20467;-66
2024/03/31 12:23:52;;;;;;;2.77;1.50;;;22.70;54.50;;;;;;4993993;28;20844;-68
2024/03/31 12:26:19;;;;;;;2.53;1.70;;;22.70;54.50;;;;;;4994232;28;20416;-68
2024/03/31 12:28:45;;;;;;;3.60;2.37;;;22.70;54.50;;;;;;4994406;28;20793;-66
2024/03/31 12:31:15;;;;;;;3.00;1.57;;;22.70;54.50;;;;;;4993984;28;21037;-66
2024/03/31 12:33:42;;;;;;;2.20;1.80;;;22.70;54.50;;;;;;4993603;28;20404;-67
2024/03/31 12:36:08;;;;;;;2.53;1.60;;;22.70;54.50;;;;;;4993870;28;20416;-66
2024/03/31 12:38:35;;;;;;;1.60;1.10;;;22.70;54.50;;;;;;4993907;28;20424;-67
2024/03/31 12:41:02;;;;;;;2.30;1.50;;;22.70;54.50;;;;;;4993386;28;20468;-67
2024/03/31 12:43:28;;;;;;;2.17;1.77;;;22.70;54.50;;;;;;4993565;28;20453;-67